Time;durP1;ratioP1;P1;durP2;ratioP2;P2;SDS_P1;SDS_P2;PMS_P1;PMS_P2;Temp;Humidity;BMP_temperature;BMP_pressure;BME280_temperature;BME280_humidity;BME280_pressure;Samples;Min_cycle;Max_cycle;Signal;HPM_P1;HPM_P2
2023/02/19 00:00:56;;;;;;;10.10;9.13;;;11.10;99.90;;;;;;5071389;28;20456;-56
2023/02/19 00:03:22;;;;;;;10.93;9.93;;;11.10;99.90;;;;;;5075269;28;20851;-58
2023/02/19 00:05:50;;;;;;;9.87;8.97;;;11.10;99.90;;;;;;5075280;28;20473;-57
2023/02/19 00:08:17;;;;;;;9.70;8.80;;;11.10;99.90;;;;;;5074971;28;20948;-57
2023/02/19 00:10:44;;;;;;;9.97;9.07;;;11.10;99.90;;;;;;5075254;28;20823;-57
2023/02/19 00:13:10;;;;;;;9.80;8.90;;;11.10;99.90;;;;;;5075102;28;20460;-57
2023/02/19 00:15:37;;;;;;;9.30;8.40;;;11.10;99.90;;;;;;5074782;28;20995;-57
2023/02/19 00:18:04;;;;;;;9.83;7.97;;;11.00;99.90;;;;;;5073511;28;20834;-56
2023/02/19 00:20:31;;;;;;;9.30;8.40;;;11.00;99.90;;;;;;5075008;28;20460;-57
2023/02/19 00:22:59;;;;;;;10.00;9.00;;;11.00;99.90;;;;;;5074934;28;20473;-58
2023/02/19 00:25:25;;;;;;;10.03;8.97;;;11.00;99.90;;;;;;5074487;28;20547;-57
2023/02/19 00:27:52;;;;;;;13.93;10.30;;;11.00;99.90;;;;;;5074859;28;20452;-57
2023/02/19 00:30:20;;;;;;;14.10;9.90;;;11.00;99.90;;;;;;5072736;28;20465;-56
2023/02/19 00:32:50;;;;;;;10.97;9.87;;;11.10;99.90;;;;;;5075581;28;20449;-58
2023/02/19 00:35:17;;;;;;;10.60;9.53;;;11.10;99.90;;;;;;5073426;28;20591;-58
2023/02/19 00:37:44;;;;;;;10.87;9.77;;;11.10;99.90;;;;;;5074629;28;20452;-58
2023/02/19 00:40:12;;;;;;;10.13;9.10;;;11.10;99.90;;;;;;5072374;28;20472;-57
2023/02/19 00:42:39;;;;;;;10.63;9.53;;;11.10;99.90;;;;;;5074528;28;20472;-58
2023/02/19 00:45:06;;;;;;;11.40;9.63;;;11.00;99.90;;;;;;5074472;28;20476;-57
2023/02/19 00:47:33;;;;;;;11.60;9.63;;;11.00;99.90;;;;;;5074228;28;20465;-58
2023/02/19 00:49:59;;;;;;;9.67;8.67;;;11.00;99.90;;;;;;5074384;28;20459;-57
2023/02/19 00:52:26;;;;;;;11.57;10.37;;;11.00;99.90;;;;;;5074389;28;20449;-58
2023/02/19 00:54:53;;;;;;;11.13;9.80;;;11.10;99.90;;;;;;5072946;28;20876;-56
2023/02/19 00:57:21;;;;;;;11.80;9.07;;;11.10;99.90;;;;;;5073855;28;21032;-57
2023/02/19 00:59:47;;;;;;;9.77;8.23;;;11.10;99.90;;;;;;5072512;28;20471;-56
2023/02/19 01:02:14;;;;;;;10.33;9.13;;;11.10;99.90;;;;;;5074126;28;20491;-57
2023/02/19 01:04:41;;;;;;;8.73;7.83;;;11.10;99.90;;;;;;5074092;28;20475;-58
2023/02/19 01:07:07;;;;;;;7.93;7.20;;;11.10;99.90;;;;;;5074155;28;20869;-58
2023/02/19 01:09:34;;;;;;;7.90;7.10;;;11.10;99.90;;;;;;5073775;28;20964;-57
2023/02/19 01:12:01;;;;;;;10.03;8.00;;;11.10;99.90;;;;;;5074041;28;20460;-57
2023/02/19 01:14:29;;;;;;;12.03;9.23;;;11.10;99.90;;;;;;5073901;28;20453;-57
2023/02/19 01:16:55;;;;;;;8.70;7.87;;;11.10;99.90;;;;;;5072839;28;20464;-57
2023/02/19 01:19:22;;;;;;;10.63;8.17;;;11.10;99.90;;;;;;5073958;28;20436;-58
2023/02/19 01:21:49;;;;;;;11.73;8.30;;;11.10;99.90;;;;;;5074377;28;20456;-58
2023/02/19 01:24:16;;;;;;;10.27;9.17;;;11.10;99.90;;;;;;5074323;28;20468;-58
2023/02/19 01:26:43;;;;;;;11.77;8.40;;;11.10;99.90;;;;;;5073734;28;20503;-58
2023/02/19 01:29:10;;;;;;;11.30;9.43;;;11.10;99.90;;;;;;5073737;28;20452;-58
2023/02/19 01:31:40;;;;;;;11.00;9.53;;;11.10;99.90;;;;;;5073118;28;20453;-56
2023/02/19 01:34:09;;;;;;;13.57;9.07;;;11.10;99.90;;;;;;5053881;28;20792;-57
2023/02/19 01:36:36;;;;;;;11.00;8.33;;;11.20;99.90;;;;;;5053592;28;20470;-57
2023/02/19 01:39:04;;;;;;;13.03;9.50;;;11.20;99.90;;;;;;5053680;28;20445;-57
2023/02/19 01:41:35;;;;;;;11.60;8.97;;;11.20;99.90;;;;;;5053514;28;20504;-57
2023/02/19 01:44:10;;;;;;;11.40;9.80;;;11.20;99.90;;;;;;5053498;28;20474;-57
2023/02/19 01:46:39;;;;;;;12.17;9.37;;;11.20;99.90;;;;;;5053580;28;20473;-57
2023/02/19 01:49:11;;;;;;;11.53;10.13;;;11.20;99.90;;;;;;5065630;28;20479;-56
2023/02/19 01:51:43;;;;;;;12.30;8.80;;;11.20;99.90;;;;;;5073505;28;20459;-57
2023/02/19 01:54:13;;;;;;;9.43;7.93;;;11.20;99.90;;;;;;5073395;28;20435;-57
2023/02/19 01:56:42;;;;;;;11.80;8.50;;;11.20;99.90;;;;;;5073388;28;20472;-57
2023/02/19 01:59:09;;;;;;;10.97;8.90;;;11.20;99.90;;;;;;5073051;28;20968;-57
2023/02/19 02:01:38;;;;;;;9.43;8.43;;;11.20;99.90;;;;;;5070771;28;20952;-56
2023/02/19 02:04:06;;;;;;;12.30;8.53;;;11.10;99.90;;;;;;5073229;28;20472;-57
2023/02/19 02:06:39;;;;;;;10.40;8.60;;;11.20;99.90;;;;;;5073310;28;20469;-58
2023/02/19 02:11:52;;;;;;;13.67;8.90;;;11.20;99.90;;;;;;5073444;28;20404;-57
2023/02/19 02:14:23;;;;;;;12.93;8.80;;;11.20;99.90;;;;;;5073232;28;20453;-57
2023/02/19 02:16:59;;;;;;;12.90;9.87;;;11.20;99.90;;;;;;5072248;28;20486;-56
2023/02/19 02:19:40;;;;;;;12.40;7.90;;;11.20;99.90;;;;;;5073244;28;20433;-57
2023/02/19 02:22:16;;;;;;;11.40;8.93;;;11.20;99.90;;;;;;5074021;28;20432;-57
2023/02/19 02:25:14;;;;;;;11.60;9.50;;;11.20;99.90;;;;;;5073169;28;20488;-57
2023/02/19 02:27:51;;;;;;;12.10;9.10;;;11.20;99.90;;;;;;5068130;28;20461;-56
2023/02/19 02:30:46;;;;;;;12.20;10.17;;;11.20;99.90;;;;;;5073170;28;20443;-57
2023/02/19 02:33:20;;;;;;;10.77;9.60;;;11.20;99.90;;;;;;5069279;28;20461;-57
2023/02/19 02:35:50;;;;;;;17.23;8.40;;;11.10;99.90;;;;;;5073094;28;20480;-57
2023/02/19 02:38:20;;;;;;;12.80;10.47;;;11.10;99.90;;;;;;5073164;28;20435;-57
2023/02/19 02:40:47;;;;;;;12.90;9.70;;;11.10;99.90;;;;;;5073039;28;20431;-57
2023/02/19 02:43:14;;;;;;;12.03;9.13;;;11.10;99.90;;;;;;5071817;28;20480;-56
2023/02/19 02:45:42;;;;;;;13.90;9.73;;;11.10;99.90;;;;;;5072979;28;20514;-57
2023/02/19 02:48:20;;;;;;;14.83;10.90;;;11.10;99.90;;;;;;5070252;28;20485;-56
2023/02/19 02:50:50;;;;;;;17.87;10.50;;;11.10;99.90;;;;;;5073012;28;20507;-57
2023/02/19 02:56:06;;;;;;;15.50;12.90;;;11.10;99.90;;;;;;5072954;28;20444;-57
2023/02/19 02:58:34;;;;;;;14.50;9.67;;;11.10;99.90;;;;;;5072897;28;20453;-58
2023/02/19 03:03:55;;;;;;;18.80;10.77;;;11.00;99.90;;;;;;5071775;28;20964;-56
2023/02/19 03:06:24;;;;;;;14.60;12.00;;;11.10;99.90;;;;;;5072612;28;20816;-58
2023/02/19 03:08:56;;;;;;;16.13;11.60;;;11.00;99.90;;;;;;5072862;28;20437;-57
2023/02/19 03:19:52;;;;;;;21.47;11.67;;;11.00;99.90;;;;;;5076443;28;20912;-57
2023/02/19 03:22:23;;;;;;;16.23;10.70;;;11.00;99.90;;;;;;5075022;28;20464;-56
2023/02/19 03:27:42;;;;;;;18.07;11.87;;;11.00;99.90;;;;;;5075132;28;20599;-57
2023/02/19 03:30:14;;;;;;;18.10;13.80;;;11.00;99.90;;;;;;5076514;28;20448;-57
2023/02/19 03:32:46;;;;;;;20.80;12.40;;;11.00;99.90;;;;;;5076653;28;20901;-57
2023/02/19 03:35:16;;;;;;;22.63;14.50;;;11.00;99.90;;;;;;5076537;28;20480;-57
2023/02/19 03:37:47;;;;;;;22.63;12.87;;;11.00;99.90;;;;;;5076734;28;20459;-57
2023/02/19 03:40:14;;;;;;;16.53;12.70;;;11.00;99.90;;;;;;5077123;28;20440;-57
2023/02/19 03:42:55;;;;;;;19.07;12.53;;;11.00;99.90;;;;;;5077060;28;20475;-58
2023/02/19 03:45:33;;;;;;;17.07;12.73;;;11.00;99.90;;;;;;5075352;28;20480;-56
2023/02/19 03:48:13;;;;;;;21.50;12.63;;;11.10;99.90;;;;;;5076911;28;20838;-57
2023/02/19 03:50:45;;;;;;;19.23;13.80;;;11.10;99.90;;;;;;5077511;28;20447;-58
2023/02/19 03:53:18;;;;;;;18.93;12.93;;;11.10;99.90;;;;;;5078354;28;20429;-58
2023/02/19 03:55:52;;;;;;;19.30;12.63;;;11.10;99.90;;;;;;5076751;28;20496;-57
2023/02/19 03:58:25;;;;;;;16.50;12.87;;;11.10;99.90;;;;;;5076221;28;20794;-57
2023/02/19 04:00:57;;;;;;;16.63;11.73;;;11.10;99.90;;;;;;5073783;28;20457;-56
2023/02/19 04:03:31;;;;;;;20.63;13.23;;;11.10;99.90;;;;;;5056125;28;20913;-56
2023/02/19 04:06:02;;;;;;;16.10;11.83;;;11.00;99.90;;;;;;5055810;28;20473;-56
2023/02/19 04:08:31;;;;;;;26.03;13.57;;;10.90;99.90;;;;;;5056375;28;20488;-55
2023/02/19 04:10:59;;;;;;;18.60;13.47;;;10.90;99.90;;;;;;5055577;28;20437;-57
2023/02/19 04:13:30;;;;;;;21.27;14.60;;;10.80;99.90;;;;;;5055268;28;20446;-56
2023/02/19 04:16:02;;;;;;;19.87;14.63;;;10.80;99.90;;;;;;5054834;28;20473;-56
2023/02/19 04:18:33;;;;;;;20.37;14.23;;;10.80;99.90;;;;;;5054957;28;20445;-56
2023/02/19 04:21:02;;;;;;;21.03;11.77;;;10.70;99.90;;;;;;5055141;28;20450;-56
2023/02/19 04:23:33;;;;;;;21.70;13.53;;;10.70;99.90;;;;;;5054580;28;20996;-57
2023/02/19 04:26:02;;;;;;;23.83;13.90;;;10.70;99.90;;;;;;5070346;28;20546;-56
2023/02/19 04:28:29;;;;;;;20.33;14.53;;;10.70;99.90;;;;;;5074533;28;20447;-57
2023/02/19 04:30:56;;;;;;;22.33;15.50;;;10.60;99.90;;;;;;5074964;28;20429;-57
2023/02/19 04:33:22;;;;;;;27.50;16.77;;;10.60;99.90;;;;;;5074612;28;20940;-57
2023/02/19 04:35:50;;;;;;;24.00;15.47;;;10.70;99.90;;;;;;5074853;28;20469;-57
2023/02/19 04:38:17;;;;;;;24.67;16.57;;;10.70;99.90;;;;;;5074891;28;20455;-57
2023/02/19 04:40:44;;;;;;;23.90;17.30;;;10.70;99.90;;;;;;5069487;28;20957;-56
2023/02/19 04:43:11;;;;;;;24.33;15.90;;;10.70;99.90;;;;;;5074887;28;20445;-56
2023/02/19 04:45:38;;;;;;;23.57;16.57;;;10.60;99.90;;;;;;5074574;28;20984;-56
2023/02/19 04:48:05;;;;;;;25.13;16.77;;;10.70;99.90;;;;;;5074292;28;20468;-56
2023/02/19 04:50:31;;;;;;;22.23;15.10;;;10.60;99.90;;;;;;5072471;28;20469;-56
2023/02/19 04:52:59;;;;;;;25.50;17.87;;;10.60;99.90;;;;;;5074457;28;20452;-57
2023/02/19 04:55:26;;;;;;;28.23;16.97;;;10.60;99.90;;;;;;5074012;28;20973;-57
2023/02/19 04:57:53;;;;;;;30.03;17.93;;;10.60;99.90;;;;;;5074337;28;20449;-58
2023/02/19 05:00:20;;;;;;;29.00;18.40;;;10.60;99.90;;;;;;5073421;28;20461;-56
2023/02/19 05:02:46;;;;;;;31.60;20.30;;;10.60;99.90;;;;;;5074220;28;20440;-57
2023/02/19 05:05:13;;;;;;;33.70;20.33;;;10.60;99.90;;;;;;5073675;28;21069;-57
2023/02/19 05:07:40;;;;;;;30.20;19.73;;;10.60;99.90;;;;;;5074103;28;20460;-57
2023/02/19 05:10:08;;;;;;;31.83;19.77;;;10.60;99.90;;;;;;5073800;28;20440;-57
2023/02/19 05:12:35;;;;;;;32.20;20.80;;;10.60;99.90;;;;;;5074051;28;20468;-58
2023/02/19 05:15:02;;;;;;;33.10;19.70;;;10.60;99.90;;;;;;5072802;28;20487;-57
2023/02/19 05:17:28;;;;;;;37.10;20.27;;;10.60;99.90;;;;;;5073592;28;20823;-57
2023/02/19 05:19:55;;;;;;;36.87;20.13;;;10.50;99.90;;;;;;5074012;28;20437;-57
2023/02/19 05:22:22;;;;;;;37.17;21.47;;;10.50;99.90;;;;;;5073859;28;20444;-57
2023/02/19 05:24:48;;;;;;;32.00;20.67;;;10.60;99.90;;;;;;5073676;28;20494;-57
2023/02/19 05:27:16;;;;;;;25.57;20.00;;;10.50;99.90;;;;;;5073750;28;20478;-56
2023/02/19 05:29:43;;;;;;;33.67;19.17;;;10.50;99.90;;;;;;5073692;28;20862;-56
2023/02/19 05:32:10;;;;;;;33.50;20.97;;;10.50;99.90;;;;;;5072478;28;20468;-55
2023/02/19 05:34:37;;;;;;;31.07;21.20;;;10.50;99.90;;;;;;5073749;28;20562;-57
2023/02/19 05:37:03;;;;;;;28.17;21.57;;;10.40;99.90;;;;;;5073375;28;20448;-57
2023/02/19 05:39:30;;;;;;;32.53;21.57;;;10.40;99.90;;;;;;5073565;28;20475;-57
2023/02/19 05:41:56;;;;;;;28.97;20.33;;;10.50;99.90;;;;;;5073725;28;20441;-57
2023/02/19 05:44:25;;;;;;;25.93;20.00;;;10.50;99.90;;;;;;5073390;28;20487;-57
2023/02/19 05:46:51;;;;;;;27.23;20.13;;;10.50;99.90;;;;;;5072148;28;20468;-57
2023/02/19 05:49:18;;;;;;;30.13;18.80;;;10.50;99.90;;;;;;5073244;28;20795;-57
2023/02/19 05:51:45;;;;;;;25.00;19.50;;;10.50;99.90;;;;;;5073485;28;20444;-57
2023/02/19 05:54:11;;;;;;;28.37;21.70;;;10.40;99.90;;;;;;5073461;28;20445;-57
2023/02/19 05:56:39;;;;;;;27.10;17.70;;;10.40;99.90;;;;;;5073332;28;20476;-57
2023/02/19 05:59:08;;;;;;;25.70;19.20;;;10.40;99.90;;;;;;5073441;28;20441;-57
2023/02/19 06:01:36;;;;;;;27.40;18.37;;;10.30;99.90;;;;;;5073413;28;20476;-57
2023/02/19 06:04:03;;;;;;;27.03;16.80;;;10.30;99.90;;;;;;5073243;28;20480;-57
2023/02/19 06:06:30;;;;;;;26.97;17.50;;;10.30;99.90;;;;;;5072238;28;20492;-56
2023/02/19 06:08:56;;;;;;;25.57;16.70;;;10.30;99.90;;;;;;5073313;28;20460;-58
2023/02/19 06:11:23;;;;;;;27.40;18.43;;;10.30;99.90;;;;;;5073893;28;20445;-57
2023/02/19 06:13:50;;;;;;;27.77;17.33;;;10.30;99.90;;;;;;5073201;28;20452;-58
2023/02/19 06:16:18;;;;;;;25.50;17.13;;;10.30;99.90;;;;;;5073178;28;20471;-58
2023/02/19 06:18:46;;;;;;;28.37;16.60;;;10.30;99.90;;;;;;5073194;28;20539;-57
2023/02/19 06:21:14;;;;;;;25.40;17.03;;;10.30;99.90;;;;;;5071506;28;20467;-56
2023/02/19 06:23:40;;;;;;;23.63;15.20;;;10.30;99.90;;;;;;5072740;28;20975;-57
2023/02/19 06:26:08;;;;;;;24.03;15.07;;;10.30;99.90;;;;;;5073130;28;20472;-57
2023/02/19 06:28:35;;;;;;;26.00;15.30;;;10.30;99.90;;;;;;5073142;28;20459;-57
2023/02/19 06:31:02;;;;;;;27.37;14.63;;;10.30;99.90;;;;;;5072827;28;20878;-57
2023/02/19 06:33:29;;;;;;;21.77;13.67;;;10.20;99.90;;;;;;5073100;28;20461;-57
2023/02/19 06:36:00;;;;;;;21.53;14.17;;;10.20;99.90;;;;;;5072919;28;20469;-57
2023/02/19 06:38:26;;;;;;;20.50;13.23;;;10.20;99.90;;;;;;5071631;28;20945;-56
2023/02/19 06:40:53;;;;;;;19.37;12.73;;;10.20;99.90;;;;;;5070855;28;20467;-56
2023/02/19 06:43:20;;;;;;;25.70;13.23;;;10.20;99.90;;;;;;5071424;28;20468;-56
2023/02/19 06:45:47;;;;;;;20.93;13.83;;;10.20;99.90;;;;;;5072827;28;20497;-57
2023/02/19 06:48:14;;;;;;;26.20;12.40;;;10.20;99.90;;;;;;5072544;28;20826;-58
2023/02/19 06:50:40;;;;;;;22.10;13.77;;;10.20;99.90;;;;;;5075039;28;20960;-58
2023/02/19 06:53:10;;;;;;;20.03;12.47;;;10.20;99.90;;;;;;5076732;28;20855;-58
2023/02/19 06:55:39;;;;;;;17.30;11.60;;;10.20;99.90;;;;;;5074149;28;20476;-57
2023/02/19 06:58:06;;;;;;;19.70;12.50;;;10.20;99.90;;;;;;5076596;28;20452;-58
2023/02/19 07:00:33;;;;;;;22.10;13.30;;;10.10;99.90;;;;;;5076506;28;20444;-58
2023/02/19 07:02:59;;;;;;;23.03;13.60;;;10.10;99.90;;;;;;5076224;28;20952;-58
2023/02/19 07:05:26;;;;;;;27.20;13.53;;;10.20;99.90;;;;;;5076299;28;20501;-57
2023/02/19 07:07:53;;;;;;;19.17;13.83;;;10.10;99.90;;;;;;5076358;28;20456;-57
2023/02/19 07:10:21;;;;;;;20.20;12.30;;;10.20;99.90;;;;;;5076148;28;20897;-56
2023/02/19 07:12:47;;;;;;;21.50;11.80;;;10.00;99.90;;;;;;5075322;28;20471;-56
2023/02/19 07:15:14;;;;;;;23.50;13.10;;;10.10;99.90;;;;;;5070816;28;20476;-56
2023/02/19 07:17:41;;;;;;;20.20;11.73;;;10.10;99.90;;;;;;5076091;28;20454;-56
2023/02/19 07:20:08;;;;;;;22.63;12.10;;;10.20;99.90;;;;;;5076253;28;20920;-56
2023/02/19 07:22:35;;;;;;;18.27;12.23;;;10.20;99.90;;;;;;5076158;28;20437;-57
2023/02/19 07:25:01;;;;;;;17.20;11.00;;;10.20;99.90;;;;;;5075654;28;20988;-56
2023/02/19 07:27:29;;;;;;;25.47;11.27;;;10.20;99.90;;;;;;5075819;28;20440;-57
2023/02/19 07:29:56;;;;;;;21.30;12.63;;;10.10;99.90;;;;;;5075573;28;20817;-56
2023/02/19 07:32:23;;;;;;;29.60;12.70;;;10.10;99.90;;;;;;5073251;28;20460;-56
2023/02/19 07:34:49;;;;;;;17.00;11.97;;;10.20;99.90;;;;;;5065179;28;20484;-56
2023/02/19 07:37:16;;;;;;;16.40;10.27;;;10.20;99.90;;;;;;5075868;28;20453;-56
2023/02/19 07:39:43;;;;;;;21.33;12.30;;;10.20;99.90;;;;;;5059109;28;20445;-56
2023/02/19 07:42:09;;;;;;;17.17;11.07;;;10.20;99.90;;;;;;5055519;28;20945;-56
2023/02/19 07:44:37;;;;;;;21.63;11.53;;;10.10;99.90;;;;;;5075065;28;20479;-56
2023/02/19 07:47:04;;;;;;;26.33;12.10;;;10.10;99.90;;;;;;5058382;28;20493;-56
2023/02/19 07:49:32;;;;;;;16.50;11.00;;;10.20;99.90;;;;;;5075639;28;20429;-57
2023/02/19 07:51:58;;;;;;;18.67;10.80;;;10.20;99.90;;;;;;5067407;28;20444;-57
2023/02/19 07:54:25;;;;;;;26.97;11.00;;;10.20;99.90;;;;;;5055489;28;20489;-57
2023/02/19 07:56:52;;;;;;;23.50;10.20;;;10.20;99.90;;;;;;5055549;28;20457;-58
2023/02/19 07:59:20;;;;;;;18.97;10.20;;;10.20;99.90;;;;;;5055119;28;20457;-57
2023/02/19 08:04:32;;;;;;;20.40;9.80;;;10.30;99.90;;;;;;5066547;28;20598;-57
2023/02/19 08:06:59;;;;;;;18.23;8.80;;;10.30;99.90;;;;;;5075429;28;20463;-57
2023/02/19 08:09:26;;;;;;;20.33;9.10;;;10.30;99.90;;;;;;5075310;28;20452;-58
2023/02/19 08:14:36;;;;;;;18.07;8.37;;;10.40;99.90;;;;;;5084705;28;20638;-57
2023/02/19 08:17:04;;;;;;;15.17;9.10;;;10.40;99.90;;;;;;5095107;28;20916;-58
2023/02/19 08:19:31;;;;;;;18.87;8.20;;;10.40;99.90;;;;;;5085436;28;20460;-56
2023/02/19 08:21:58;;;;;;;16.90;8.80;;;10.40;99.90;;;;;;5074545;28;20441;-57
2023/02/19 08:24:24;;;;;;;18.97;9.70;;;10.50;99.90;;;;;;5074521;28;20803;-57
2023/02/19 08:26:51;;;;;;;16.83;8.47;;;10.50;99.90;;;;;;5075022;28;20440;-58
2023/02/19 08:29:18;;;;;;;19.73;7.80;;;10.50;99.90;;;;;;5074965;28;20425;-58
2023/02/19 08:31:44;;;;;;;11.83;6.73;;;10.50;99.90;;;;;;5074897;28;20460;-58
2023/02/19 08:34:13;;;;;;;15.80;6.90;;;10.60;99.90;;;;;;5074795;28;20476;-58
2023/02/19 08:36:39;;;;;;;15.33;6.83;;;10.60;99.90;;;;;;5075536;28;20460;-58
2023/02/19 08:39:06;;;;;;;17.27;8.03;;;10.70;99.90;;;;;;5074687;28;20448;-57
2023/02/19 08:41:33;;;;;;;12.10;6.30;;;10.80;99.90;;;;;;5074567;28;20456;-57
2023/02/19 08:43:59;;;;;;;18.23;6.77;;;10.80;99.90;;;;;;5074279;28;20822;-57
2023/02/19 08:46:26;;;;;;;13.93;7.07;;;10.80;99.90;;;;;;5074454;28;20500;-58
2023/02/19 08:48:53;;;;;;;17.20;6.50;;;10.90;99.90;;;;;;5074115;28;20467;-58
2023/02/19 08:51:21;;;;;;;12.80;6.43;;;10.90;99.90;;;;;;5074403;28;20445;-58
2023/02/19 08:53:47;;;;;;;19.73;6.37;;;10.90;99.90;;;;;;5075215;28;20853;-58
2023/02/19 08:56:17;;;;;;;12.30;5.90;;;11.00;99.90;;;;;;5074344;28;20464;-58
2023/02/19 08:58:44;;;;;;;14.23;7.07;;;11.00;99.90;;;;;;5074033;28;20923;-58
2023/02/19 09:01:12;;;;;;;11.50;5.60;;;11.00;99.90;;;;;;5074385;28;20441;-58
2023/02/19 09:03:39;;;;;;;15.03;6.27;;;10.90;99.90;;;;;;5074004;28;20951;-57
2023/02/19 09:06:07;;;;;;;10.40;5.60;;;10.90;99.90;;;;;;5074124;28;20492;-58
2023/02/19 09:08:35;;;;;;;21.03;7.07;;;11.00;99.90;;;;;;5074294;28;20448;-58
2023/02/19 09:11:03;;;;;;;16.07;6.70;;;11.00;99.90;;;;;;5073819;28;20956;-58
2023/02/19 09:13:30;;;;;;;8.67;5.20;;;11.10;99.90;;;;;;5073262;28;20807;-57
2023/02/19 09:15:57;;;;;;;11.60;6.00;;;11.20;99.90;;;;;;5073696;28;20472;-57
2023/02/19 09:18:24;;;;;;;13.73;5.70;;;11.20;99.90;;;;;;5074030;28;20429;-58
2023/02/19 09:20:51;;;;;;;15.63;6.33;;;11.10;99.90;;;;;;5074012;28;20452;-58
2023/02/19 09:23:17;;;;;;;14.40;5.90;;;11.10;99.90;;;;;;5073971;28;20444;-58
2023/02/19 09:25:45;;;;;;;10.63;5.00;;;11.00;99.90;;;;;;5073591;28;20484;-58
2023/02/19 09:28:12;;;;;;;10.03;5.00;;;10.90;99.90;;;;;;5073893;28;20433;-57
2023/02/19 09:30:39;;;;;;;11.13;5.90;;;10.90;99.90;;;;;;5074504;28;20433;-57
2023/02/19 09:33:06;;;;;;;15.33;5.50;;;10.80;99.90;;;;;;5073405;28;20936;-57
2023/02/19 09:35:33;;;;;;;12.50;5.97;;;10.80;99.90;;;;;;5073740;28;20461;-57
2023/02/19 09:38:00;;;;;;;8.80;6.27;;;10.80;99.90;;;;;;5073866;28;20448;-58
2023/02/19 09:40:27;;;;;;;15.23;5.70;;;10.90;99.90;;;;;;5074613;28;20494;-58
2023/02/19 09:42:55;;;;;;;12.43;6.37;;;11.00;99.90;;;;;;5073778;28;20441;-57
2023/02/19 09:45:25;;;;;;;13.43;6.90;;;11.00;99.90;;;;;;5073604;28;20488;-57
2023/02/19 09:47:54;;;;;;;13.23;6.60;;;11.00;99.90;;;;;;5073346;28;20461;-57
2023/02/19 09:50:27;;;;;;;9.83;5.67;;;11.00;99.90;;;;;;5073677;28;20845;-57
2023/02/19 09:52:56;;;;;;;11.40;6.00;;;10.90;99.90;;;;;;5073586;28;20436;-57
2023/02/19 09:55:30;;;;;;;10.37;6.43;;;10.80;99.90;;;;;;5073581;28;20468;-57
2023/02/19 09:58:02;;;;;;;9.53;6.77;;;10.80;99.90;;;;;;5073734;28;20475;-57
2023/02/19 10:00:32;;;;;;;12.30;6.97;;;10.70;99.90;;;;;;5073242;28;20909;-57
2023/02/19 10:03:04;;;;;;;16.63;7.20;;;10.80;99.90;;;;;;5073732;28;20443;-56
2023/02/19 10:05:32;;;;;;;12.90;7.13;;;10.70;99.90;;;;;;5073550;28;20484;-56
2023/02/19 10:07:59;;;;;;;13.70;6.80;;;10.70;99.90;;;;;;5073649;28;20909;-56
2023/02/19 10:10:30;;;;;;;10.27;8.07;;;10.60;99.90;;;;;;5073884;28;20433;-57
2023/02/19 10:13:12;;;;;;;11.90;8.03;;;10.70;99.90;;;;;;5074473;28;20798;-57
2023/02/19 10:15:45;;;;;;;16.27;7.73;;;10.70;99.90;;;;;;5075029;28;20464;-57
2023/02/19 10:18:12;;;;;;;11.90;8.33;;;10.90;99.90;;;;;;5075301;28;20433;-57
2023/02/19 10:20:39;;;;;;;11.17;8.50;;;11.00;99.90;;;;;;5075004;28;20433;-58
2023/02/19 10:23:08;;;;;;;15.13;8.10;;;11.00;99.90;;;;;;5075526;28;20433;-57
2023/02/19 10:25:36;;;;;;;12.50;7.57;;;11.00;99.90;;;;;;5077519;28;20988;-56
2023/02/19 10:28:06;;;;;;;15.67;7.83;;;11.10;99.90;;;;;;5065504;28;20819;-57
2023/02/19 10:30:36;;;;;;;9.13;7.20;;;11.00;99.90;;;;;;5077569;28;20432;-58
2023/02/19 10:33:08;;;;;;;8.87;7.37;;;11.00;99.90;;;;;;5077186;28;20444;-58
2023/02/19 10:35:37;;;;;;;9.57;6.43;;;11.00;99.90;;;;;;5077338;28;20456;-56
2023/02/19 10:38:07;;;;;;;11.43;7.53;;;11.10;99.90;;;;;;5077300;28;20445;-57
2023/02/19 10:40:34;;;;;;;16.17;7.67;;;11.20;99.90;;;;;;5076722;28;20487;-57
2023/02/19 10:43:03;;;;;;;11.03;7.73;;;11.30;99.90;;;;;;5077059;28;20444;-58
2023/02/19 10:45:38;;;;;;;14.30;7.67;;;11.30;99.90;;;;;;5062080;28;20496;-58
2023/02/19 10:48:06;;;;;;;12.73;7.40;;;11.40;99.90;;;;;;5056539;28;20460;-58
2023/02/19 10:50:38;;;;;;;8.40;6.60;;;11.40;99.90;;;;;;5065441;28;20467;-57
2023/02/19 10:53:04;;;;;;;11.73;6.60;;;11.50;99.90;;;;;;5076829;28;20443;-57
2023/02/19 10:55:34;;;;;;;12.80;7.17;;;11.60;99.90;;;;;;5076696;28;20479;-57
2023/02/19 10:58:25;;;;;;;12.23;6.73;;;11.60;99.90;;;;;;5076640;28;20448;-57
2023/02/19 11:01:11;;;;;;;10.00;6.27;;;11.70;99.90;;;;;;5076618;28;20425;-57
2023/02/19 11:03:38;;;;;;;13.97;6.50;;;11.60;99.90;;;;;;5077012;28;20444;-58
2023/02/19 11:06:07;;;;;;;13.93;6.90;;;11.60;99.90;;;;;;5071845;28;20477;-57
2023/02/19 11:08:45;;;;;;;10.80;6.93;;;11.60;99.90;;;;;;5076229;28;20461;-57
2023/02/19 11:11:25;;;;;;;12.47;6.93;;;11.40;99.90;;;;;;5070848;28;20929;-57
2023/02/19 11:13:54;;;;;;;15.93;7.77;;;11.30;99.90;;;;;;5076340;28;20829;-58
2023/02/19 11:16:22;;;;;;;10.47;7.70;;;11.30;99.90;;;;;;5075967;28;20976;-57
2023/02/19 11:18:56;;;;;;;10.50;6.30;;;11.40;99.90;;;;;;5076058;28;20921;-58
2023/02/19 11:21:31;;;;;;;12.87;8.27;;;11.50;99.90;;;;;;5076293;28;20472;-58
2023/02/19 11:23:59;;;;;;;14.47;7.20;;;11.60;99.90;;;;;;5076206;28;20433;-57
2023/02/19 11:26:27;;;;;;;9.80;6.70;;;11.80;99.90;;;;;;5076053;28;20892;-57
2023/02/19 11:28:56;;;;;;;13.10;6.80;;;11.80;99.90;;;;;;5068669;28;20500;-57
2023/02/19 11:31:27;;;;;;;8.03;6.90;;;12.10;99.90;;;;;;5086878;28;20874;-57
2023/02/19 11:33:56;;;;;;;12.53;6.77;;;12.30;99.90;;;;;;5064583;28;20441;-57
2023/02/19 11:36:32;;;;;;;8.63;6.30;;;12.40;99.90;;;;;;5075594;28;20468;-58
2023/02/19 11:39:04;;;;;;;10.50;5.60;;;12.40;99.90;;;;;;5059306;28;20929;-57
2023/02/19 11:41:57;;;;;;;9.13;5.33;;;12.40;99.90;;;;;;5055444;28;20426;-57
2023/02/19 11:44:38;;;;;;;9.13;5.20;;;12.30;99.90;;;;;;5064754;28;20473;-57
2023/02/19 11:47:35;;;;;;;12.40;5.47;;;12.40;99.90;;;;;;5055727;28;20485;-58
2023/02/19 11:50:13;;;;;;;8.13;5.00;;;12.40;99.90;;;;;;5060694;28;20455;-58
2023/02/19 11:52:46;;;;;;;9.67;6.00;;;12.50;99.90;;;;;;5065725;28;20477;-57
2023/02/19 11:55:21;;;;;;;9.13;4.50;;;12.70;99.90;;;;;;5061350;28;20486;-57
2023/02/19 11:57:54;;;;;;;7.67;4.63;;;12.90;99.90;;;;;;5066940;28;20444;-58
2023/02/19 12:00:24;;;;;;;5.30;4.43;;;13.10;99.90;;;;;;5075061;28;20822;-57
2023/02/19 12:03:13;;;;;;;7.77;4.00;;;13.20;99.90;;;;;;5058952;28;20464;-57
2023/02/19 12:05:48;;;;;;;6.87;4.50;;;13.30;99.90;;;;;;5069597;28;20515;-57
2023/02/19 12:08:56;;;;;;;6.30;3.93;;;13.20;99.90;;;;;;5073046;28;20435;-57
2023/02/19 12:11:41;;;;;;;5.50;4.27;;;13.10;99.90;;;;;;5055375;28;20440;-58
2023/02/19 12:14:42;;;;;;;4.60;3.57;;;12.90;99.90;;;;;;5055263;28;20440;-58
2023/02/19 12:17:14;;;;;;;7.33;4.23;;;12.70;99.90;;;;;;5045246;28;20465;-57
2023/02/19 12:19:57;;;;;;;7.53;4.50;;;12.70;99.90;;;;;;5075232;28;20424;-58
2023/02/19 12:22:29;;;;;;;7.50;4.20;;;12.50;99.90;;;;;;5056363;28;20438;-58
2023/02/19 12:25:25;;;;;;;6.50;4.00;;;12.50;99.90;;;;;;5055028;28;20504;-57
2023/02/19 12:28:27;;;;;;;5.70;4.30;;;12.30;99.90;;;;;;5074434;28;20472;-58
2023/02/19 12:31:10;;;;;;;5.87;3.90;;;12.20;99.90;;;;;;5072012;28;20843;-57
2023/02/19 12:34:07;;;;;;;11.27;4.27;;;12.20;99.90;;;;;;5074838;28;20433;-58
2023/02/19 12:36:43;;;;;;;6.70;3.87;;;12.30;99.90;;;;;;5070819;28;20503;-57
2023/02/19 12:39:18;;;;;;;7.63;3.97;;;12.40;99.90;;;;;;5071293;28;20448;-57
2023/02/19 12:41:51;;;;;;;10.97;5.10;;;12.40;99.90;;;;;;5074814;28;20440;-58
2023/02/19 12:44:22;;;;;;;7.63;5.13;;;12.50;99.90;;;;;;5074351;28;20799;-57
2023/02/19 12:46:56;;;;;;;8.00;5.03;;;12.60;99.90;;;;;;5074160;28;20472;-58
2023/02/19 12:49:28;;;;;;;7.57;5.00;;;12.60;99.90;;;;;;5074505;28;20421;-58
2023/02/19 12:51:59;;;;;;;8.20;4.60;;;12.70;99.90;;;;;;5074623;28;20436;-58
2023/02/19 12:54:30;;;;;;;8.20;4.63;;;12.80;99.90;;;;;;5069518;28;20452;-57
2023/02/19 12:57:02;;;;;;;4.33;3.90;;;12.80;99.90;;;;;;5074530;28;20421;-58
2023/02/19 12:59:34;;;;;;;7.63;3.17;;;12.80;99.90;;;;;;5069228;28;20467;-57
2023/02/19 13:02:10;;;;;;;8.03;3.73;;;12.80;99.90;;;;;;5074419;28;20436;-57
2023/02/19 13:04:45;;;;;;;5.57;4.17;;;12.80;99.90;;;;;;5074819;28;20429;-58
2023/02/19 13:07:17;;;;;;;4.07;3.57;;;12.80;99.90;;;;;;5071266;28;20471;-57
2023/02/19 13:09:48;;;;;;;4.67;3.83;;;12.80;99.90;;;;;;5071674;28;20457;-57
2023/02/19 13:12:21;;;;;;;5.67;4.07;;;12.80;99.90;;;;;;5072408;28;20457;-57
2023/02/19 13:14:51;;;;;;;4.37;3.10;;;12.70;99.90;;;;;;5073806;28;20460;-56